createdAt,value
2018-07-15T00:00:50.884Z,18.59
2018-07-15T00:01:50.876Z,18.51
2018-07-15T00:02:50.875Z,18.66
2018-07-15T00:03:50.879Z,18.53
2018-07-15T00:04:50.877Z,18.50
2018-07-15T00:05:50.872Z,18.51
2018-07-15T00:06:50.869Z,18.46
2018-07-15T00:07:50.871Z,18.47
2018-07-15T00:08:50.866Z,18.39
2018-07-15T00:09:50.872Z,18.32
2018-07-15T00:10:50.871Z,18.31
2018-07-15T00:11:50.870Z,18.34
2018-07-15T00:12:50.866Z,18.35
2018-07-15T00:13:50.862Z,18.34
2018-07-15T00:14:50.859Z,18.25
2018-07-15T00:15:50.858Z,18.34
2018-07-15T00:16:50.856Z,18.23
2018-07-15T00:17:50.859Z,18.28
2018-07-15T00:18:50.858Z,18.29
2018-07-15T00:19:50.852Z,18.19
2018-07-15T00:20:50.850Z,18.16
2018-07-15T00:21:50.853Z,18.13
2018-07-15T00:22:50.851Z,18.16
2018-07-15T00:23:50.852Z,18.17
2018-07-15T00:24:50.848Z,18.17
2018-07-15T00:25:50.842Z,18.13
2018-07-15T00:26:50.842Z,18.10
2018-07-15T00:27:50.841Z,18.11
2018-07-15T00:28:50.837Z,18.09
2018-07-15T00:29:50.841Z,18.10
2018-07-15T00:30:50.840Z,18.09
2018-07-15T00:31:50.842Z,18.02
2018-07-15T00:32:50.837Z,18.09
2018-07-15T00:33:50.830Z,18.01
2018-07-15T00:34:50.830Z,18.02
2018-07-15T00:35:50.832Z,17.87
2018-07-15T00:36:50.831Z,17.95
2018-07-15T00:37:50.828Z,17.94
2018-07-15T00:38:50.822Z,17.89
2018-07-15T00:39:50.822Z,17.86
2018-07-15T00:40:50.820Z,17.87
2018-07-15T00:41:50.822Z,17.86
2018-07-15T00:42:50.821Z,17.83
2018-07-15T00:43:50.820Z,17.86
2018-07-15T00:44:50.817Z,17.84
2018-07-15T00:45:50.810Z,17.80
2018-07-15T00:46:50.809Z,17.83
2018-07-15T00:47:50.807Z,17.86
2018-07-15T00:48:50.806Z,17.81
2018-07-15T00:49:50.808Z,17.89
2018-07-15T00:50:50.806Z,17.79
2018-07-15T00:51:50.801Z,17.86
2018-07-15T00:52:50.798Z,17.86
2018-07-15T00:53:50.802Z,17.79
2018-07-15T00:54:50.806Z,17.80
2018-07-15T00:55:50.799Z,17.84
2018-07-15T00:56:50.795Z,17.77
2018-07-15T00:57:50.793Z,17.76
2018-07-15T00:58:50.788Z,17.83
2018-07-15T00:59:50.787Z,17.79
2018-07-15T01:00:50.785Z,17.76
2018-07-15T01:01:50.793Z,17.76
2018-07-15T01:02:50.787Z,17.80
2018-07-15T01:03:50.784Z,17.80
2018-07-15T01:04:50.786Z,17.80
2018-07-15T01:05:50.777Z,17.83
2018-07-15T01:06:50.779Z,17.76
2018-07-15T01:07:50.779Z,17.76
2018-07-15T01:08:50.775Z,17.68
2018-07-15T01:09:50.769Z,17.65
2018-07-15T01:10:50.767Z,17.62
2018-07-15T01:11:50.766Z,17.65
2018-07-15T01:12:50.764Z,17.60
2018-07-15T01:13:50.765Z,17.53
2018-07-15T01:14:50.763Z,17.53
2018-07-15T01:15:50.762Z,17.62
2018-07-15T01:16:50.760Z,17.57
2018-07-15T01:17:50.753Z,17.58
2018-07-15T01:18:50.758Z,17.51
2018-07-15T01:19:50.752Z,17.49
2018-07-15T01:20:50.749Z,17.53
2018-07-15T01:21:50.752Z,17.51
2018-07-15T01:22:50.750Z,17.46
2018-07-15T01:23:50.747Z,17.46
2018-07-15T01:24:50.745Z,17.47
2018-07-15T01:25:50.744Z,17.49
2018-07-15T01:26:50.742Z,17.40
2018-07-15T01:27:50.741Z,17.43
2018-07-15T01:28:50.738Z,17.46
2018-07-15T01:29:50.732Z,17.36
2018-07-15T01:30:50.729Z,17.40
2018-07-15T01:31:50.728Z,17.42
2018-07-15T01:32:50.755Z,17.35
2018-07-15T01:33:50.728Z,17.33
2018-07-15T01:34:50.727Z,17.28
2018-07-15T01:35:50.726Z,17.33
2018-07-15T01:36:50.722Z,17.33
2018-07-15T01:37:50.717Z,17.30
2018-07-15T01:38:50.714Z,17.32
2018-07-15T01:39:50.717Z,17.20
2018-07-15T01:40:50.713Z,17.21
2018-07-15T01:41:50.708Z,17.22
2018-07-15T01:42:50.705Z,17.20
2018-07-15T01:43:50.705Z,17.17
2018-07-15T01:44:50.702Z,17.17
2018-07-15T01:45:50.704Z,17.17
2018-07-15T01:46:50.703Z,17.10
2018-07-15T01:47:50.700Z,17.10
2018-07-15T01:48:50.697Z,17.09
2018-07-15T01:49:50.691Z,17.18
2018-07-15T01:50:50.690Z,17.12
2018-07-15T01:51:50.688Z,17.06
2018-07-15T01:52:50.684Z,16.99
2018-07-15T01:53:50.686Z,17.06
2018-07-15T01:54:50.684Z,17.05
2018-07-15T01:55:50.678Z,17.00
2018-07-15T01:56:50.679Z,16.95
2018-07-15T01:57:50.681Z,16.92
2018-07-15T01:58:50.676Z,16.91
2018-07-15T01:59:50.675Z,16.95
2018-07-15T02:00:50.673Z,16.95
2018-07-15T02:01:50.665Z,16.91
2018-07-15T02:02:50.662Z,16.85
2018-07-15T02:03:50.660Z,16.90
2018-07-15T02:04:50.709Z,16.88
2018-07-15T02:05:50.661Z,16.85
2018-07-15T02:06:50.659Z,16.78
2018-07-15T02:07:50.661Z,16.81
2018-07-15T02:08:50.652Z,16.78
2018-07-15T02:09:50.647Z,16.88
2018-07-15T02:10:50.646Z,16.85
2018-07-15T02:11:50.648Z,16.81
2018-07-15T02:12:50.644Z,16.78
2018-07-15T02:13:50.641Z,16.82
2018-07-15T02:14:50.635Z,16.78
2018-07-15T02:15:50.637Z,16.81
2018-07-15T02:16:50.630Z,16.78
2018-07-15T02:17:50.634Z,16.77
2018-07-15T02:18:50.630Z,16.77
2018-07-15T02:19:50.629Z,16.78
2018-07-15T02:20:50.628Z,16.84
2018-07-15T02:21:50.618Z,16.82
2018-07-15T02:22:50.619Z,16.78
2018-07-15T02:23:50.614Z,16.80
2018-07-15T02:24:50.613Z,16.78
2018-07-15T02:25:50.614Z,16.67
2018-07-15T02:26:50.610Z,16.62
2018-07-15T02:27:50.605Z,16.62
2018-07-15T02:28:50.604Z,16.65
2018-07-15T02:29:50.603Z,16.65
2018-07-15T02:30:50.605Z,16.57
2018-07-15T02:31:50.609Z,16.57
2018-07-15T02:32:50.597Z,16.62
2018-07-15T02:33:50.590Z,16.57
2018-07-15T02:34:50.590Z,16.65
2018-07-15T02:35:50.590Z,16.63
2018-07-15T02:36:50.637Z,16.66
2018-07-15T02:37:50.585Z,16.63
2018-07-15T02:38:50.582Z,16.60
2018-07-15T02:39:50.581Z,16.50
2018-07-15T02:40:50.578Z,16.52
2018-07-15T02:41:50.571Z,16.60
2018-07-15T02:42:50.571Z,16.57
2018-07-15T02:43:50.572Z,16.52
2018-07-15T02:44:50.571Z,16.59
2018-07-15T02:45:50.564Z,16.57
2018-07-15T02:46:50.584Z,16.70
2018-07-15T02:47:50.563Z,16.67
2018-07-15T02:48:50.553Z,16.63
2018-07-15T02:49:50.553Z,16.60
2018-07-15T02:50:50.553Z,16.57
2018-07-15T02:51:50.549Z,16.65
2018-07-15T02:52:50.551Z,16.63
2018-07-15T02:53:50.540Z,16.62
2018-07-15T02:54:50.537Z,16.60
2018-07-15T02:55:50.535Z,16.52
2018-07-15T02:56:50.540Z,16.63
2018-07-15T02:57:50.533Z,16.54
2018-07-15T02:58:50.532Z,16.62
2018-07-15T02:59:50.525Z,16.52
2018-07-15T03:00:50.526Z,16.54
2018-07-15T03:01:50.525Z,16.52
2018-07-15T03:02:50.522Z,16.47
2018-07-15T03:03:50.521Z,16.52
2018-07-15T03:04:50.517Z,16.54
2018-07-15T03:05:50.510Z,16.48
2018-07-15T03:06:50.507Z,16.55
2018-07-15T03:07:50.504Z,16.50
2018-07-15T03:08:50.502Z,16.52
2018-07-15T03:09:50.502Z,16.57
2018-07-15T03:10:50.500Z,16.50
2018-07-15T03:11:50.500Z,16.47
2018-07-15T03:12:50.497Z,16.50
2018-07-15T03:13:50.489Z,16.50
2018-07-15T03:14:50.491Z,16.44
2018-07-15T03:15:50.487Z,16.37
2018-07-15T03:16:50.486Z,16.36
2018-07-15T03:17:50.478Z,16.44
2018-07-15T03:18:50.476Z,16.37
2018-07-15T03:19:50.489Z,16.47
2018-07-15T03:20:50.469Z,16.42
2018-07-15T03:21:50.471Z,16.30
2018-07-15T03:22:50.469Z,16.29
2018-07-15T03:23:50.468Z,16.26
2018-07-15T03:24:50.464Z,16.11
2018-07-15T03:25:50.456Z,16.08
2018-07-15T03:26:50.457Z,16.04
2018-07-15T03:27:50.452Z,16.06
2018-07-15T03:28:50.448Z,16.04
2018-07-15T03:29:50.450Z,15.88
2018-07-15T03:30:50.449Z,15.91
2018-07-15T03:31:50.442Z,15.80
2018-07-15T03:32:50.438Z,15.85
2018-07-15T03:33:50.441Z,15.91
2018-07-15T03:34:50.438Z,15.76
2018-07-15T03:35:50.435Z,15.80
2018-07-15T03:36:50.431Z,15.84
2018-07-15T03:37:50.425Z,15.76
2018-07-15T03:38:50.423Z,15.81
2018-07-15T03:39:50.428Z,15.76
2018-07-15T03:40:50.420Z,15.84
2018-07-15T03:41:50.415Z,15.88
2018-07-15T03:42:50.412Z,15.84
2018-07-15T03:43:50.409Z,15.91
2018-07-15T03:44:50.405Z,15.95
2018-07-15T03:45:50.409Z,15.95
2018-07-15T03:46:50.405Z,15.92
2018-07-15T03:47:50.400Z,15.91
2018-07-15T03:48:50.397Z,15.92
2018-07-15T03:49:50.397Z,15.98
2018-07-15T03:50:50.395Z,16.01
2018-07-15T03:51:50.391Z,16.01
2018-07-15T03:52:50.388Z,16.03
2018-07-15T03:53:50.381Z,16.01
2018-07-15T03:54:50.378Z,16.07
2018-07-15T03:55:50.375Z,16.07
2018-07-15T03:56:50.372Z,16.11
2018-07-15T03:57:50.374Z,16.16
2018-07-15T03:58:50.377Z,16.23
2018-07-15T03:59:50.370Z,16.26
2018-07-15T04:00:50.532Z,16.27
2018-07-15T04:01:50.359Z,16.26
2018-07-15T04:02:50.356Z,16.26
2018-07-15T04:03:50.358Z,16.33
2018-07-15T04:04:50.356Z,16.34
2018-07-15T04:05:50.349Z,16.34
2018-07-15T04:06:50.346Z,16.42
2018-07-15T04:07:50.344Z,16.37
2018-07-15T04:08:50.393Z,16.36
2018-07-15T04:09:50.344Z,16.45
2018-07-15T04:10:50.338Z,16.45
2018-07-15T04:11:50.336Z,16.52
2018-07-15T04:12:50.333Z,16.50
2018-07-15T04:13:50.326Z,16.54
2018-07-15T04:14:50.328Z,16.55
2018-07-15T04:15:50.322Z,16.60
2018-07-15T04:16:50.318Z,16.60
2018-07-15T04:17:50.320Z,16.62
2018-07-15T04:18:50.320Z,16.63
2018-07-15T04:19:50.310Z,16.70
2018-07-15T04:20:50.308Z,16.70
2018-07-15T04:21:50.310Z,16.67
2018-07-15T04:22:50.308Z,16.55
2018-07-15T04:23:50.304Z,16.60
2018-07-15T04:24:50.301Z,16.65
2018-07-15T04:25:50.296Z,16.66
2018-07-15T04:26:50.292Z,16.60
2018-07-15T04:27:50.290Z,16.73
2018-07-15T04:28:50.287Z,16.65
2018-07-15T04:29:50.289Z,16.67
2018-07-15T04:30:50.287Z,16.77
2018-07-15T04:31:50.285Z,16.78
2018-07-15T04:32:50.282Z,16.80
2018-07-15T04:33:50.276Z,16.70
2018-07-15T04:34:50.273Z,16.78
2018-07-15T04:35:50.275Z,16.84
2018-07-15T04:36:50.274Z,16.77
2018-07-15T04:37:50.274Z,16.88
2018-07-15T04:38:50.261Z,16.90
2018-07-15T04:39:50.260Z,16.90
2018-07-15T04:40:50.256Z,16.91
2018-07-15T04:41:50.258Z,16.98
2018-07-15T04:42:50.256Z,16.96
2018-07-15T04:43:50.279Z,16.98
2018-07-15T04:44:50.254Z,17.02
2018-07-15T04:45:50.246Z,17.09
2018-07-15T04:46:50.244Z,17.05
2018-07-15T04:47:50.241Z,17.14
2018-07-15T04:48:50.240Z,17.14
2018-07-15T04:49:50.241Z,17.14
2018-07-15T04:50:50.247Z,17.15
2018-07-15T04:51:50.232Z,17.21
2018-07-15T04:52:50.229Z,17.25
2018-07-15T04:53:50.232Z,17.38
2018-07-15T04:54:50.229Z,17.35
2018-07-15T04:55:50.229Z,17.42
2018-07-15T04:56:50.225Z,17.46
2018-07-15T04:57:50.223Z,17.55
2018-07-15T04:58:50.217Z,17.66
2018-07-15T04:59:50.215Z,17.71
2018-07-15T05:00:50.211Z,17.83
2018-07-15T05:01:50.255Z,18.05
2018-07-15T05:02:50.214Z,18.21
2018-07-15T05:03:50.212Z,18.35
2018-07-15T05:04:50.209Z,18.51
2018-07-15T05:05:50.204Z,18.71
2018-07-15T05:06:50.203Z,18.89
2018-07-15T05:07:50.210Z,19.07
2018-07-15T05:08:50.206Z,19.27
2018-07-15T05:09:50.202Z,19.62
2018-07-15T05:10:50.202Z,19.95
2018-07-15T05:11:50.203Z,20.33
2018-07-15T05:12:50.204Z,20.69
2018-07-15T05:13:50.209Z,21.00
2018-07-15T05:14:50.213Z,21.38
2018-07-15T05:15:50.212Z,21.83
2018-07-15T05:16:50.214Z,22.33
2018-07-15T05:17:50.212Z,22.94
2018-07-15T05:18:50.213Z,23.44
2018-07-15T05:19:50.215Z,23.99
2018-07-15T05:20:50.217Z,24.61
2018-07-15T05:21:50.227Z,25.19
2018-07-15T05:22:50.228Z,25.57
2018-07-15T05:23:50.228Z,26.12
2018-07-15T05:24:50.235Z,26.49
2018-07-15T05:25:50.238Z,26.84
2018-07-15T05:26:50.243Z,27.09
2018-07-15T05:27:50.248Z,27.50
2018-07-15T05:28:50.251Z,27.84
2018-07-15T05:29:50.251Z,28.17
2018-07-15T05:30:50.256Z,28.61
2018-07-15T05:31:50.261Z,28.80
2018-07-15T05:32:50.268Z,29.33
2018-07-15T05:33:50.275Z,29.62
2018-07-15T05:34:50.342Z,30.01
2018-07-15T05:35:50.284Z,30.29
2018-07-15T05:36:50.289Z,30.42
2018-07-15T05:37:50.290Z,30.60
2018-07-15T05:38:50.296Z,30.79
2018-07-15T05:39:50.307Z,31.07
2018-07-15T05:40:50.314Z,31.35
2018-07-15T05:41:50.315Z,31.56
2018-07-15T05:42:50.320Z,31.65
2018-07-15T05:43:50.328Z,31.82
2018-07-15T05:44:50.333Z,31.75
2018-07-15T05:45:50.345Z,32.06
2018-07-15T05:46:50.352Z,32.25
2018-07-15T05:47:50.358Z,32.22
2018-07-15T05:48:50.369Z,32.16
2018-07-15T05:49:50.368Z,31.92
2018-07-15T05:50:50.377Z,32.03
2018-07-15T05:51:50.419Z,32.31
2018-07-15T05:52:50.389Z,32.47
2018-07-15T05:53:50.402Z,32.51
2018-07-15T05:54:50.409Z,32.61
2018-07-15T05:55:50.411Z,32.91
2018-07-15T05:56:50.465Z,32.99
2018-07-15T05:57:50.457Z,33.33
2018-07-15T05:58:50.440Z,33.60
2018-07-15T05:59:50.448Z,33.82
2018-07-15T06:00:50.456Z,34.00
2018-07-15T06:01:50.458Z,34.30
2018-07-15T06:02:50.486Z,34.46
2018-07-15T06:03:50.525Z,34.64
2018-07-15T06:04:50.492Z,34.30
2018-07-15T06:05:50.499Z,34.27
2018-07-15T06:06:50.506Z,33.78
2018-07-15T06:07:50.516Z,33.89
2018-07-15T06:08:50.525Z,34.28
2018-07-15T06:09:50.531Z,34.34
2018-07-15T06:10:50.644Z,34.56
2018-07-15T06:11:50.556Z,33.97
2018-07-15T06:12:50.564Z,34.30
2018-07-15T06:13:50.579Z,34.75
2018-07-15T06:14:50.577Z,34.95
2018-07-15T06:15:50.600Z,35.28
2018-07-15T06:16:50.597Z,35.49
2018-07-15T06:17:50.611Z,35.83
2018-07-15T06:18:50.622Z,36.11
2018-07-15T06:19:50.633Z,35.87
2018-07-15T06:20:50.647Z,35.95
2018-07-15T06:21:50.650Z,36.33
2018-07-15T06:22:50.767Z,36.35
2018-07-15T06:23:50.670Z,36.48
2018-07-15T06:24:50.682Z,36.78
2018-07-15T06:25:50.697Z,36.89
2018-07-15T06:26:50.708Z,37.18
2018-07-15T06:27:50.714Z,37.40
2018-07-15T06:28:50.723Z,37.53
2018-07-15T06:29:50.742Z,37.60
2018-07-15T06:30:50.752Z,36.64
2018-07-15T06:31:50.832Z,36.38
2018-07-15T06:32:50.775Z,35.59
2018-07-15T06:33:50.782Z,35.64
2018-07-15T06:34:50.794Z,36.06
2018-07-15T06:35:50.806Z,36.28
2018-07-15T06:36:50.818Z,36.50
2018-07-15T06:37:50.835Z,37.01
2018-07-15T06:38:50.846Z,37.46
2018-07-15T06:39:50.860Z,37.84
2018-07-15T06:40:50.872Z,38.26
2018-07-15T06:41:50.879Z,38.19
2018-07-15T06:42:50.893Z,38.59
2018-07-15T06:43:50.908Z,38.68
2018-07-15T06:44:50.921Z,39.16
2018-07-15T06:45:50.928Z,39.41
2018-07-15T06:46:50.942Z,39.78
2018-07-15T06:47:50.954Z,39.94
2018-07-15T06:48:50.966Z,39.51
2018-07-15T06:49:50.985Z,39.28
2018-07-15T06:50:50.999Z,39.53
2018-07-15T06:51:51.012Z,39.22
2018-07-15T06:52:51.026Z,39.24
2018-07-15T06:53:51.068Z,39.43
2018-07-15T06:54:51.047Z,39.66
2018-07-15T06:55:51.104Z,40.13
2018-07-15T06:56:51.077Z,40.02
2018-07-15T06:57:51.092Z,39.36
2018-07-15T06:58:51.110Z,38.92
2018-07-15T06:59:51.118Z,38.59
2018-07-15T07:00:51.133Z,38.38
2018-07-15T07:01:51.148Z,38.55
2018-07-15T07:02:51.163Z,38.26
2018-07-15T07:03:51.177Z,38.18
2018-07-15T07:04:51.192Z,38.22
2018-07-15T07:05:51.201Z,38.19
2018-07-15T07:06:51.214Z,37.95
2018-07-15T07:07:51.235Z,38.18
2018-07-15T07:08:51.243Z,38.26
2018-07-15T07:09:51.263Z,38.34
2018-07-15T07:10:51.277Z,37.87
2018-07-15T07:11:51.291Z,38.04
2018-07-15T07:12:51.304Z,38.00
2018-07-15T07:13:51.315Z,38.21
2018-07-15T07:14:51.331Z,38.59
2018-07-15T07:15:51.347Z,38.47
2018-07-15T07:16:51.361Z,38.53
2018-07-15T07:17:51.372Z,38.90
2018-07-15T07:18:51.386Z,39.43
2018-07-15T07:19:51.401Z,39.62
2018-07-15T07:20:51.415Z,39.84
2018-07-15T07:21:51.436Z,39.39
2018-07-15T07:22:51.450Z,39.69
2018-07-15T07:23:51.466Z,39.25
2018-07-15T07:24:51.479Z,38.75
2018-07-15T07:25:51.491Z,38.16
2018-07-15T07:26:51.509Z,38.81
2018-07-15T07:27:51.520Z,39.14
2018-07-15T07:28:51.576Z,39.61
2018-07-15T07:29:51.553Z,39.80
2018-07-15T07:30:51.569Z,38.79
2018-07-15T07:31:51.582Z,38.40
2018-07-15T07:32:51.602Z,38.95
2018-07-15T07:33:51.615Z,38.77
2018-07-15T07:34:51.630Z,38.67
2018-07-15T07:35:51.647Z,38.70
2018-07-15T07:36:51.663Z,38.68
2018-07-15T07:37:51.673Z,39.12
2018-07-15T07:38:51.789Z,39.53
2018-07-15T07:39:51.704Z,39.29
2018-07-15T07:40:51.718Z,39.47
2018-07-15T07:41:51.746Z,39.01
2018-07-15T07:42:51.756Z,38.75
2018-07-15T07:43:51.771Z,38.97
2018-07-15T07:44:51.785Z,39.02
2018-07-15T07:45:51.798Z,39.34
2018-07-15T07:46:51.848Z,39.81
2018-07-15T07:47:51.833Z,38.21
2018-07-15T07:48:51.848Z,38.30
2018-07-15T07:49:51.860Z,38.52
2018-07-15T07:50:51.876Z,37.97
2018-07-15T07:51:51.893Z,37.81
2018-07-15T07:52:51.908Z,37.54
2018-07-15T07:53:51.929Z,37.97
2018-07-15T07:54:51.945Z,38.31
2018-07-15T07:55:51.962Z,38.92
2018-07-15T07:56:51.977Z,39.12
2018-07-15T07:57:51.988Z,39.51
2018-07-15T07:58:52.003Z,39.20
2018-07-15T07:59:52.019Z,39.69
2018-07-15T08:00:52.035Z,39.51
2018-07-15T08:01:52.110Z,39.75
2018-07-15T08:02:52.072Z,38.58
2018-07-15T08:03:52.084Z,38.56
2018-07-15T08:04:52.099Z,38.50
2018-07-15T08:05:52.120Z,38.40
2018-07-15T08:06:52.137Z,38.82
2018-07-15T08:07:52.155Z,38.22
2018-07-15T08:08:52.170Z,38.60
2018-07-15T08:09:52.182Z,39.07
2018-07-15T08:10:52.199Z,39.48
2018-07-15T08:11:52.217Z,39.16
2018-07-15T08:12:52.231Z,39.36
2018-07-15T08:13:52.250Z,39.20
2018-07-15T08:14:52.268Z,38.59
2018-07-15T08:15:52.284Z,37.27
2018-07-15T08:16:52.300Z,37.72
2018-07-15T08:17:52.314Z,38.43
2018-07-15T08:18:52.329Z,39.16
2018-07-15T08:19:52.351Z,39.82
2018-07-15T08:20:52.366Z,40.15
2018-07-15T08:21:52.381Z,39.92
2018-07-15T08:22:52.396Z,39.92
2018-07-15T08:23:52.414Z,40.24
2018-07-15T08:24:52.430Z,40.07
2018-07-15T08:25:52.452Z,39.41
2018-07-15T08:26:52.470Z,38.95
2018-07-15T08:27:52.486Z,39.22
2018-07-15T08:28:52.504Z,37.97
2018-07-15T08:29:52.516Z,38.43
2018-07-15T08:30:52.532Z,38.75
2018-07-15T08:31:52.549Z,38.53
2018-07-15T08:32:52.566Z,39.07
2018-07-15T08:33:52.588Z,38.07
2018-07-15T08:34:52.626Z,38.31
2018-07-15T08:35:52.620Z,38.53
2018-07-15T08:36:52.635Z,38.95
2018-07-15T08:37:52.657Z,39.38
2018-07-15T08:38:52.675Z,39.87
2018-07-15T08:39:52.694Z,39.47
2018-07-15T08:40:52.722Z,39.09
2018-07-15T08:41:52.728Z,39.53
2018-07-15T08:42:52.741Z,40.02
2018-07-15T08:43:52.759Z,40.71
2018-07-15T08:44:52.775Z,41.42
2018-07-15T08:45:52.859Z,41.01
2018-07-15T08:46:52.816Z,39.87
2018-07-15T08:47:52.837Z,39.90
2018-07-15T08:48:52.852Z,40.04
2018-07-15T08:49:52.867Z,40.67
2018-07-15T08:50:52.888Z,38.41
2018-07-15T08:51:52.908Z,38.14
2018-07-15T08:52:52.925Z,38.45
2018-07-15T08:53:52.940Z,38.34
2018-07-15T08:54:52.959Z,37.30
2018-07-15T08:55:52.977Z,37.34
2018-07-15T08:56:52.995Z,37.82
2018-07-15T08:57:53.019Z,37.25
2018-07-15T08:58:53.038Z,37.12
2018-07-15T08:59:53.058Z,37.04
2018-07-15T09:00:53.075Z,36.67
2018-07-15T09:01:53.093Z,36.79
2018-07-15T09:02:53.107Z,37.60
2018-07-15T09:03:53.123Z,38.52
2018-07-15T09:04:53.141Z,38.81
2018-07-15T09:05:53.164Z,38.82
2018-07-15T09:06:53.183Z,38.79
2018-07-15T09:07:53.196Z,36.71
2018-07-15T09:08:53.216Z,36.48
2018-07-15T09:09:53.237Z,37.39
2018-07-15T09:10:53.255Z,37.73
2018-07-15T09:11:53.272Z,38.30
2018-07-15T09:12:53.289Z,37.16
2018-07-15T09:13:53.306Z,37.12
2018-07-15T09:14:53.322Z,37.81
2018-07-15T09:15:53.343Z,38.28
2018-07-15T09:16:53.358Z,38.34
2018-07-15T09:17:53.382Z,38.81
2018-07-15T09:18:53.400Z,38.50
2018-07-15T09:19:53.417Z,37.75
2018-07-15T09:20:53.435Z,37.70
2018-07-15T09:21:53.532Z,37.56
2018-07-15T09:22:53.467Z,37.77
2018-07-15T09:23:53.492Z,36.44
2018-07-15T09:24:53.509Z,36.34
2018-07-15T09:25:53.522Z,36.34
2018-07-15T09:26:53.539Z,37.21
2018-07-15T09:27:53.576Z,37.20
2018-07-15T09:28:53.575Z,38.18
2018-07-15T09:29:53.597Z,38.79
2018-07-15T09:30:53.615Z,38.53
2018-07-15T09:31:53.634Z,38.86
2018-07-15T09:32:53.650Z,38.44
2018-07-15T09:33:53.665Z,37.40
2018-07-15T09:34:53.682Z,37.15
2018-07-15T09:35:53.708Z,37.31
2018-07-15T09:36:53.718Z,37.24
2018-07-15T09:37:53.742Z,37.31
2018-07-15T09:38:53.764Z,37.60
2018-07-15T09:39:53.772Z,38.44
2018-07-15T09:40:53.791Z,38.87
2018-07-15T09:41:53.813Z,39.32
2018-07-15T09:42:53.832Z,39.06
2018-07-15T09:43:53.850Z,39.07
2018-07-15T09:44:53.869Z,39.84
2018-07-15T09:45:53.882Z,40.53
2018-07-15T09:46:53.899Z,41.00
2018-07-15T09:47:53.917Z,40.22
2018-07-15T09:48:53.935Z,40.41
2018-07-15T09:49:53.960Z,40.22
2018-07-15T09:50:53.978Z,39.43
2018-07-15T09:51:53.999Z,38.93
2018-07-15T09:52:54.016Z,37.80
2018-07-15T09:53:54.030Z,38.18
2018-07-15T09:54:54.050Z,38.78
2018-07-15T09:55:54.074Z,39.70
2018-07-15T09:56:54.092Z,39.34
2018-07-15T09:57:54.111Z,39.66
2018-07-15T09:58:54.127Z,38.47
2018-07-15T09:59:54.147Z,37.35
2018-07-15T10:00:54.162Z,36.94
2018-07-15T10:01:54.185Z,36.75
2018-07-15T10:02:54.204Z,37.27
2018-07-15T10:03:54.226Z,37.82
2018-07-15T10:04:54.242Z,38.78
2018-07-15T10:05:54.256Z,39.29
2018-07-15T10:06:54.274Z,39.54
2018-07-15T10:07:54.293Z,39.05
2018-07-15T10:08:54.310Z,39.17
2018-07-15T10:09:54.334Z,39.05
2018-07-15T10:10:54.353Z,37.56
2018-07-15T10:11:54.369Z,37.77
2018-07-15T10:12:54.387Z,38.41
2018-07-15T10:13:54.409Z,38.75
2018-07-15T10:14:54.431Z,39.06
2018-07-15T10:15:54.450Z,38.44
2018-07-15T10:16:54.469Z,37.15
2018-07-15T10:17:54.484Z,36.12
2018-07-15T10:18:54.534Z,35.69
2018-07-15T10:19:54.522Z,35.93
2018-07-15T10:20:54.537Z,36.46
2018-07-15T10:21:54.561Z,36.89
2018-07-15T10:22:54.578Z,37.49
2018-07-15T10:23:54.597Z,37.78
2018-07-15T10:24:54.615Z,37.25
2018-07-15T10:25:54.628Z,37.24
2018-07-15T10:26:54.647Z,37.53
2018-07-15T10:27:54.670Z,37.72
2018-07-15T10:28:54.688Z,38.33
2018-07-15T10:29:54.701Z,38.93
2018-07-15T10:30:54.721Z,38.41
2018-07-15T10:31:54.741Z,38.62
2018-07-15T10:32:54.755Z,36.69
2018-07-15T10:33:54.780Z,35.15
2018-07-15T10:34:54.798Z,34.72
2018-07-15T10:35:54.818Z,35.59
2018-07-15T10:36:54.835Z,36.08
2018-07-15T10:37:54.847Z,37.05
2018-07-15T10:38:54.881Z,37.34
2018-07-15T10:39:54.886Z,38.09
2018-07-15T10:40:54.902Z,38.93
2018-07-15T10:41:54.929Z,39.12
2018-07-15T10:42:54.943Z,38.78
2018-07-15T10:43:54.958Z,38.43
2018-07-15T10:44:54.976Z,37.95
2018-07-15T10:45:55.002Z,38.40
2018-07-15T10:46:55.016Z,37.75
2018-07-15T10:47:55.037Z,37.84
2018-07-15T10:48:55.054Z,38.09
2018-07-15T10:49:55.067Z,37.85
2018-07-15T10:50:55.089Z,37.95
2018-07-15T10:51:55.104Z,38.53
2018-07-15T10:52:55.148Z,38.28
2018-07-15T10:53:55.146Z,38.40
2018-07-15T10:54:55.167Z,38.19
2018-07-15T10:55:55.183Z,37.58
2018-07-15T10:56:55.203Z,37.93
2018-07-15T10:57:55.215Z,37.68
2018-07-15T10:58:55.232Z,37.38
2018-07-15T10:59:55.257Z,37.43
2018-07-15T11:00:55.276Z,37.56
2018-07-15T11:01:55.289Z,37.96
2018-07-15T11:02:55.308Z,37.95
2018-07-15T11:03:55.326Z,37.82
2018-07-15T11:04:55.344Z,38.26
2018-07-15T11:05:55.368Z,38.58
2018-07-15T11:06:55.385Z,38.78
2018-07-15T11:07:55.404Z,38.14
2018-07-15T11:08:55.421Z,38.47
2018-07-15T11:09:55.434Z,38.37
2018-07-15T11:10:55.454Z,38.53
2018-07-15T11:11:55.473Z,38.04
2018-07-15T11:12:55.489Z,38.07
2018-07-15T11:13:55.514Z,37.73
2018-07-15T11:14:55.532Z,38.09
2018-07-15T11:15:55.546Z,36.89
2018-07-15T11:16:55.562Z,36.68
2018-07-15T11:17:55.591Z,36.64
2018-07-15T11:18:55.604Z,36.33
2018-07-15T11:19:55.621Z,36.99
2018-07-15T11:20:55.638Z,36.74
2018-07-15T11:21:55.653Z,35.55
2018-07-15T11:22:55.674Z,34.63
2018-07-15T11:23:55.689Z,34.18
2018-07-15T11:24:55.715Z,34.09
2018-07-15T11:25:55.726Z,34.60
2018-07-15T11:26:55.744Z,34.60
2018-07-15T11:27:55.762Z,34.80
2018-07-15T11:28:55.777Z,34.46
2018-07-15T11:29:55.789Z,33.81
2018-07-15T11:30:55.881Z,33.86
2018-07-15T11:31:55.826Z,33.81
2018-07-15T11:32:55.840Z,33.59
2018-07-15T11:33:55.850Z,33.49
2018-07-15T11:34:55.865Z,32.83
2018-07-15T11:35:55.878Z,32.32
2018-07-15T11:36:55.891Z,32.05
2018-07-15T11:37:55.909Z,31.87
2018-07-15T11:38:55.977Z,31.82
2018-07-15T11:39:55.936Z,31.75
2018-07-15T11:40:55.951Z,31.82
2018-07-15T11:41:55.956Z,31.92
2018-07-15T11:42:55.968Z,31.87
2018-07-15T11:43:55.977Z,31.94
2018-07-15T11:44:55.989Z,32.03
2018-07-15T11:45:56.011Z,32.16
2018-07-15T11:46:56.013Z,32.28
2018-07-15T11:47:56.020Z,32.41
2018-07-15T11:48:56.028Z,32.27
2018-07-15T11:49:56.043Z,32.29
2018-07-15T11:50:56.054Z,32.17
2018-07-15T11:51:56.062Z,32.09
2018-07-15T11:52:56.070Z,32.12
2018-07-15T11:53:56.075Z,31.95
2018-07-15T11:54:56.094Z,31.99
2018-07-15T11:55:56.092Z,32.12
2018-07-15T11:56:56.100Z,31.95
2018-07-15T11:57:56.114Z,31.91
2018-07-15T11:58:56.121Z,31.84
2018-07-15T11:59:56.131Z,32.02
2018-07-15T12:00:56.139Z,31.88
2018-07-15T12:01:56.180Z,31.64
2018-07-15T12:02:56.150Z,31.30
2018-07-15T12:03:56.162Z,30.51
2018-07-15T12:04:56.168Z,30.44
2018-07-15T12:05:56.171Z,30.37
2018-07-15T12:06:56.181Z,30.40
2018-07-15T12:07:56.187Z,30.30
2018-07-15T12:08:56.193Z,30.00
2018-07-15T12:09:56.205Z,30.01
2018-07-15T12:10:56.236Z,29.89
2018-07-15T12:11:56.216Z,29.81
2018-07-15T12:12:56.224Z,29.64
2018-07-15T12:13:56.234Z,29.85
2018-07-15T12:14:56.241Z,29.92
2018-07-15T12:15:56.247Z,30.01
2018-07-15T12:16:56.254Z,30.22
2018-07-15T12:17:56.255Z,30.36
2018-07-15T12:18:56.262Z,30.34
2018-07-15T12:19:56.274Z,30.37
2018-07-15T12:20:56.279Z,30.32
2018-07-15T12:21:56.281Z,30.54
2018-07-15T12:22:56.287Z,30.70
2018-07-15T12:23:56.295Z,30.73
2018-07-15T12:24:56.302Z,30.76
2018-07-15T12:25:56.310Z,30.86
2018-07-15T12:26:56.317Z,30.98
2018-07-15T12:27:56.324Z,30.96
2018-07-15T12:28:56.329Z,30.67
2018-07-15T12:29:56.335Z,30.63
2018-07-15T12:30:56.340Z,30.51
2018-07-15T12:31:56.343Z,30.45
2018-07-15T12:32:56.349Z,30.32
2018-07-15T12:33:56.358Z,30.28
2018-07-15T12:34:56.366Z,30.42
2018-07-15T12:35:56.368Z,30.44
2018-07-15T12:36:56.372Z,30.25
2018-07-15T12:37:56.383Z,30.32
2018-07-15T12:38:56.389Z,30.40
2018-07-15T12:39:56.396Z,30.21
2018-07-15T12:40:56.401Z,30.18
2018-07-15T12:41:56.403Z,30.16
2018-07-15T12:42:56.412Z,30.07
2018-07-15T12:43:56.416Z,29.97
2018-07-15T12:44:56.421Z,30.01
2018-07-15T12:45:56.431Z,30.01
2018-07-15T12:46:56.438Z,30.04
2018-07-15T12:47:56.443Z,30.32
2018-07-15T12:48:56.448Z,29.99
2018-07-15T12:52:56.478Z,30.10
2018-07-15T12:53:56.476Z,29.99
2018-07-15T12:54:56.485Z,30.03
2018-07-15T12:55:56.488Z,30.06